METAR AND TAF INFORMATION
METAR FOR NLWW
ADDS - METARS form results

(2014 UTC 23 September 2020)
Data provider http://aviationweather.gov/metar/data/
 
METAR text: NLWW 232000Z 13006KT 080V180 9999 SCT020 SCT033 28/25 Q1013 RR88/190093 TEMPO 4000 SHRA BKN012 SCT018TCU
Conditions at: NLWW (HIHIFO ILE WALLI, WS) observed 2000 UTC 23 September 2020
Temperature: 28.0°C (82°F)
Dewpoint: 25.0°C (77°F) [RH = 84%]
Pressure (altimeter): 29.91 inches Hg (1013.0 mb)
Winds: from the SE (130 degrees) at 7 MPH (6 knots; 3.1 m/s)
Visibility: 6 or more miles (10+ km)
Ceiling: at least 12,000 feet AGL
Clouds: scattered clouds at 2000 feet AGL
scattered clouds at 3300 feet AGL
Weather: no significant weather observed at this time

METAR text: NLWW 231935Z 13007KT 100V170 9999 SCT020 SCT033 27/24 Q1013 TEMPO 4000 SHRA BKN012 SCT018TCU
Conditions at: NLWW (HIHIFO ILE WALLI, WS) observed 1935 UTC 23 September 2020
Temperature: 27.0°C (81°F)
Dewpoint: 24.0°C (75°F) [RH = 84%]
Pressure (altimeter): 29.91 inches Hg (1013.0 mb)
Winds: from the SE (130 degrees) at 8 MPH (7 knots; 3.6 m/s)
Visibility: 6 or more miles (10+ km)
Ceiling: at least 12,000 feet AGL
Clouds: scattered clouds at 2000 feet AGL
scattered clouds at 3300 feet AGL
Weather: no significant weather observed at this time

Forecast for: NLWW (HIHIFO ILE WALLI, WS)
Text: TAF NLWW 231700Z 2318/2418 13010KT 9999 SCT020 BKN035
Forecast period: 1800 UTC 23 September 2020 to 1800 UTC 24 September 2020
Forecast type: FROM: standard forecast or significant change
Winds: from the SE (130 degrees) at 12 MPH (10 knots; 5.1 m/s)
Visibility: 6 or more miles (10+ km)
Ceiling: 3500 feet AGL
Clouds: scattered clouds at 2000 feet AGL
broken clouds at 3500 feet AGL
Weather: no significant weather forecast for this period
Text: TEMPO 2318/2418 4000 SHRA BKN012 SCT018TCU
Forecast period: 1800 UTC 23 September 2020 to 1800 UTC 24 September 2020
Forecast type: TEMPORARY: The following changes expected for less than half the time period
Visibility: 2.49 miles (4.01 km)
Ceiling: 1200 feet AGL
Clouds: broken clouds at 1200 feet AGL
scattered clouds at 1800 feet AGL
Weather: SHRA  (rain showers)

 AIRPORT MAP

 RUNWAY INFORMATION
Runway 08 Runway length 6890 ft Runway width 148 ft
Runway elevation 59 ft Runway displaced threshold 0 ft Runway heading 90
Runway 26 Runway length 6890 ft Runway width 148 ft
Runway elevation 75 ft Runway displaced threshold 0 ft Runway heading 270

 AIRPORT FREQUENCIES
Type A/G Name RDO Frequency 653.3 MHZ
Type AFIS Name INFO Frequency 118.3 MHZ
Type MISC Name VDF Frequency 118.3 MHZ

 AIRPORT NEAR NAVIGATION AIDS
Type NDB Name Wallis Frequency 315 KHZ
Type VOR-DME Name Wallis Frequency 113000 KHZ



Powered by Virtual Airlines Manager [v2.6.2]